Time;durP1;ratioP1;P1;durP2;ratioP2;P2;SDS_P1;SDS_P2;PMS_P1;PMS_P2;Temp;Humidity;BMP_temperature;BMP_pressure;BME280_temperature;BME280_humidity;BME280_pressure;Samples;Min_cycle;Max_cycle;Signal;HPM_P1;HPM_P2
2022/06/08 00:01:53;;;;;;;;;1.00;1.00;;;;;19.45;56.80;100280.25;5018294;28;45518;-77
2022/06/08 00:04:22;;;;;;;;;1.00;1.00;;;;;19.42;57.10;100272.41;5015017;28;45566;-77
2022/06/08 00:06:48;;;;;;;;;1.25;0.25;;;;;19.41;57.04;100271.53;5014388;28;45369;-76
2022/06/08 00:09:14;;;;;;;;;0.75;0.75;;;;;19.39;56.71;100267.22;5012666;28;45423;-77
2022/06/08 00:11:39;;;;;;;;;3.75;2.25;;;;;19.34;56.55;100264.84;5002975;28;46604;-78
2022/06/08 00:14:05;;;;;;;;;1.75;1.75;;;;;19.34;56.75;100248.75;5005578;28;45375;-77
2022/06/08 00:16:30;;;;;;;;;2.75;2.75;;;;;19.34;56.81;100252.31;5015462;28;45521;-77
2022/06/08 00:18:56;;;;;;;;;0.00;0.00;;;;;19.32;57.16;100253.34;5017198;28;45550;-78
2022/06/08 00:21:21;;;;;;;;;1.75;1.75;;;;;19.29;56.91;100249.03;5017236;28;46009;-78
2022/06/08 00:23:47;;;;;;;;;2.00;2.00;;;;;19.25;56.39;100242.16;5015302;28;45387;-77
2022/06/08 00:26:13;;;;;;;;;2.50;2.50;;;;;19.24;56.76;100243.13;5005685;28;45258;-77
2022/06/08 00:28:38;;;;;;;;;3.00;1.75;;;;;19.22;56.47;100237.00;5002842;28;45440;-76
2022/06/08 00:31:03;;;;;;;;;2.50;1.50;;;;;19.18;56.97;100236.31;5001729;28;46742;-77
2022/06/08 00:33:29;;;;;;;;;5.00;2.00;;;;;19.20;56.83;100241.56;5021995;28;45463;-77
2022/06/08 00:35:54;;;;;;;;;1.25;1.25;;;;;19.17;56.86;100237.25;5035999;28;45382;-76
2022/06/08 00:38:19;;;;;;;;;1.00;1.00;;;;;19.18;56.75;100228.28;5037090;28;45574;-78
2022/06/08 00:41:10;;;;;;;;;1.00;1.00;;;;;19.15;57.57;100231.13;5036886;28;45596;-78
2022/06/08 00:43:36;;;;;;;;;1.00;1.00;;;;;19.12;57.77;100217.09;5008588;28;45615;-77
2022/06/08 00:46:03;;;;;;;;;2.00;1.00;;;;;19.09;58.04;100206.56;5035722;28;45486;-77
2022/06/08 00:48:34;;;;;;;;;6.75;4.50;;;;;19.10;58.50;100213.63;5036998;28;45487;-77
2022/06/08 00:50:59;;;;;;;;;2.25;1.50;;;;;19.09;58.37;100225.31;5032866;28;46337;-77
2022/06/08 00:53:34;;;;;;;;;1.75;1.00;;;;;19.08;59.22;100221.75;4997158;28;45448;-80
2022/06/08 00:56:02;;;;;;;;;2.75;1.00;;;;;19.10;59.02;100219.84;4998548;28;45426;-78
2022/06/08 00:58:31;;;;;;;;;1.50;1.50;;;;;19.05;59.89;100215.72;5012810;28;45395;-77
2022/06/08 01:00:58;;;;;;;;;1.75;1.75;;;;;19.06;59.91;100206.75;5017462;28;46460;-77
2022/06/08 01:03:24;;;;;;;;;2.00;2.00;;;;;19.02;60.98;100205.22;5007710;28;45511;-77
2022/06/08 01:06:00;;;;;;;;;0.50;0.50;;;;;18.98;60.03;100205.41;5011688;28;45462;-77
2022/06/08 01:08:42;;;;;;;;;2.75;2.75;;;;;18.99;59.99;100209.81;5008860;28;45471;-79
2022/06/08 01:11:17;;;;;;;;;1.00;1.00;;;;;18.93;60.89;100207.50;5011429;28;46209;-77
2022/06/08 01:13:44;;;;;;;;;1.00;1.00;;;;;18.94;61.05;100209.22;5016649;28;45373;-78
2022/06/08 01:16:11;;;;;;;;;3.00;2.00;;;;;18.92;60.68;100195.06;5035566;28;45387;-77
2022/06/08 01:18:37;;;;;;;;;3.00;2.00;;;;;18.88;61.37;100192.66;5008762;28;45436;-77
2022/06/08 01:21:21;;;;;;;;;3.00;2.00;;;;;18.85;62.02;100203.53;5020967;28;46112;-77
2022/06/08 01:23:48;;;;;;;;;4.00;2.00;;;;;18.80;61.19;100201.13;5037211;28;45532;-77
2022/06/08 01:26:40;;;;;;;;;3.00;2.00;;;;;18.81;60.89;100202.84;5039011;28;45548;-77
2022/06/08 01:29:28;;;;;;;;;2.50;2.00;;;;;18.79;61.58;100196.72;5028733;28;45482;-78
2022/06/08 01:32:03;;;;;;;;;4.25;2.00;;;;;18.74;61.37;100183.63;5017957;28;45605;-77
2022/06/08 01:34:54;;;;;;;;;1.75;1.75;;;;;18.71;61.48;100180.28;5016181;28;45473;-76
2022/06/08 01:37:22;;;;;;;;;2.25;2.25;;;;;18.70;61.90;100191.91;5012236;28;45470;-77
2022/06/08 01:40:30;;;;;;;;;2.75;2.00;;;;;18.73;61.14;100194.41;4996209;28;45470;-77
2022/06/08 01:43:04;;;;;;;;;1.25;1.25;;;;;18.72;60.74;100177.50;4996361;28;46358;-76
2022/06/08 01:45:37;;;;;;;;;4.00;2.00;;;;;18.69;61.36;100183.03;4995922;28;45406;-78
2022/06/08 01:48:24;;;;;;;;;3.00;3.00;;;;;18.71;61.10;100199.00;5003924;28;45423;-77
2022/06/08 01:51:02;;;;;;;;;1.75;1.75;;;;;18.67;60.99;100200.13;5021380;28;45537;-76
2022/06/08 01:53:45;;;;;;;;;2.75;2.75;;;;;18.71;60.90;100213.25;5036279;28;45438;-77
2022/06/08 01:56:21;;;;;;;;;4.00;2.25;;;;;18.70;61.29;100207.97;5040033;28;45414;-76
2022/06/08 01:59:17;;;;;;;;;1.00;1.00;;;;;18.68;60.72;100197.38;5024173;28;45503;-76
2022/06/08 02:01:54;;;;;;;;;1.00;1.00;;;;;18.71;60.88;100196.34;5027591;28;45541;-76
2022/06/08 02:04:30;;;;;;;;;1.75;1.75;;;;;18.65;61.47;100187.69;5035587;28;45961;-78
2022/06/08 02:07:14;;;;;;;;;2.00;2.00;;;;;18.68;61.49;100188.50;5035344;28;45394;-77
2022/06/08 02:09:51;;;;;;;;;3.00;2.00;;;;;18.64;61.78;100179.75;5015231;28;45348;-77
2022/06/08 02:12:16;;;;;;;;;3.00;3.00;;;;;18.62;62.65;100179.84;4995957;28;45483;-77
2022/06/08 02:14:48;;;;;;;;;2.50;1.75;;;;;18.57;63.27;100168.56;4995432;28;46351;-76
2022/06/08 02:17:24;;;;;;;;;2.25;2.25;;;;;18.55;61.96;100172.28;4996174;28;45653;-76
2022/06/08 02:19:54;;;;;;;;;1.25;1.25;;;;;18.53;62.63;100168.84;5015717;28;45485;-75
2022/06/08 02:22:29;;;;;;;;;3.00;2.00;;;;;18.42;63.54;100161.47;5014115;28;45501;-77
2022/06/08 02:25:08;;;;;;;;;3.00;2.00;;;;;18.45;63.27;100171.97;4999187;28;46262;-77
2022/06/08 02:27:46;;;;;;;;;1.00;1.00;;;;;18.39;63.81;100181.22;5003487;28;45363;-75
2022/06/08 02:30:22;;;;;;;;;2.00;0.00;;;;;18.38;64.15;100181.31;5015156;28;45346;-77
2022/06/08 02:35:48;;;;;;;;;2.00;2.00;;;;;18.33;64.29;100186.09;5015433;28;45426;-77
2022/06/08 02:38:17;;;;;;;;;2.25;2.25;;;;;18.29;65.05;100175.56;5010030;28;45473;-78
2022/06/08 02:40:49;;;;;;;;;1.75;1.75;;;;;18.32;64.70;100184.34;5014786;28;45487;-76
2022/06/08 02:43:23;;;;;;;;;2.50;1.75;;;;;18.27;64.82;100165.91;5008416;28;45347;-75
2022/06/08 02:46:02;;;;;;;;;2.00;2.00;;;;;18.24;64.76;100164.25;4994282;28;46299;-77
2022/06/08 02:48:28;;;;;;;;;2.50;2.50;;;;;18.21;64.50;100161.75;4999072;28;45366;-77
2022/06/08 02:50:56;;;;;;;;;1.75;1.75;;;;;18.23;65.26;100167.03;5009357;28;45620;-76
2022/06/08 02:53:21;;;;;;;;;3.75;1.00;;;;;18.19;65.22;100161.00;5015188;28;45516;-77
2022/06/08 02:56:12;;;;;;;;;1.00;1.00;;;;;18.16;65.26;100162.97;5018656;28;47276;-78
2022/06/08 02:58:47;;;;;;;;;3.50;2.00;;;;;18.16;64.98;100147.81;5006471;28;45461;-77
2022/06/08 03:01:19;;;;;;;;;1.25;1.25;;;;;18.11;66.07;100149.88;5014655;28;45336;-77
2022/06/08 03:03:49;;;;;;;;;0.00;0.00;;;;;18.00;65.93;100136.28;5013917;28;45537;-76
2022/06/08 03:06:19;;;;;;;;;2.00;2.00;;;;;17.99;66.42;100142.56;5012623;28;45382;-77
2022/06/08 03:08:55;;;;;;;;;1.50;1.50;;;;;18.00;66.59;100142.47;4999679;28;45448;-78
2022/06/08 03:11:23;;;;;;;;;3.25;1.75;;;;;17.96;68.88;100145.41;5010063;28;45446;-77
2022/06/08 03:14:00;;;;;;;;;1.00;1.00;;;;;17.91;68.64;100135.00;5000719;28;45719;-77
2022/06/08 03:16:39;;;;;;;;;1.00;1.00;;;;;17.81;68.08;100123.94;5012962;28;45446;-77
2022/06/08 03:19:06;;;;;;;;;2.75;1.25;;;;;17.75;68.66;100113.59;4998060;28;45463;-76
2022/06/08 03:21:31;;;;;;;;;5.50;3.25;;;;;17.68;69.47;100098.88;4994099;28;45434;-77
2022/06/08 03:23:59;;;;;;;;;5.00;1.00;;;;;17.59;68.64;100090.41;4998200;28;45407;-77
2022/06/08 03:26:26;;;;;;;;;2.50;1.50;;;;;17.49;68.03;100083.88;5009267;28;45699;-77
2022/06/08 03:28:52;;;;;;;;;1.00;1.00;;;;;17.45;68.60;100084.16;5003183;28;45514;-77
2022/06/08 03:31:17;;;;;;;;;2.75;1.25;;;;;17.37;69.56;100079.25;5012615;28;45353;-76
2022/06/08 03:33:43;;;;;;;;;3.00;3.00;;;;;17.41;69.00;100086.09;5010451;28;45391;-76
2022/06/08 03:36:08;;;;;;;;;1.00;1.00;;;;;17.37;69.78;100085.44;4993144;28;46209;-77
2022/06/08 03:38:35;;;;;;;;;2.00;1.50;;;;;17.38;69.18;100084.50;5002585;28;45462;-76
2022/06/08 03:41:00;;;;;;;;;1.00;1.00;;;;;17.33;69.85;100077.69;5012620;28;45356;-75
2022/06/08 03:43:26;;;;;;;;;1.50;0.50;;;;;17.32;69.72;100082.13;5012904;28;45387;-76
2022/06/08 03:45:57;;;;;;;;;2.75;2.50;;;;;17.28;70.79;100082.38;5011498;28;45430;-76
2022/06/08 03:48:23;;;;;;;;;6.00;2.50;;;;;17.23;71.61;100072.84;5011067;28;45578;-76
2022/06/08 03:50:52;;;;;;;;;2.25;2.25;;;;;17.21;71.17;100064.03;5013277;28;45360;-77
2022/06/08 03:53:24;;;;;;;;;2.00;2.00;;;;;17.19;71.49;100079.31;5017749;28;45394;-77
2022/06/08 03:55:51;;;;;;;;;2.25;1.75;;;;;17.13;71.48;100076.97;5013444;28;46252;-76
2022/06/08 03:58:18;;;;;;;;;2.00;2.00;;;;;17.06;71.44;100075.56;4952996;28;1187622;-76
2022/06/08 04:00:44;;;;;;;;;1.25;1.25;;;;;17.02;71.15;100082.03;4993786;28;45490;-77
2022/06/08 04:03:10;;;;;;;;;1.75;1.75;;;;;16.96;71.50;100077.91;4992556;28;45570;-78
2022/06/08 04:05:36;;;;;;;;;1.75;1.00;;;;;16.93;73.71;100077.19;4994184;28;45558;-76
2022/06/08 04:08:03;;;;;;;;;2.00;2.00;;;;;16.89;72.36;100071.16;5012991;28;45454;-76
2022/06/08 04:10:29;;;;;;;;;2.00;2.00;;;;;16.85;72.70;100069.56;5013738;28;45430;-76
2022/06/08 04:12:55;;;;;;;;;2.00;2.00;;;;;16.76;73.44;100062.94;5014100;28;45497;-76
2022/06/08 04:18:04;;;;;;;;;2.00;2.00;;;;;16.75;74.14;100065.69;5002093;28;45319;-77
2022/06/08 04:20:30;;;;;;;;;2.25;2.25;;;;;16.76;75.47;100062.06;5030648;28;45345;-76
2022/06/08 04:22:55;;;;;;;;;5.00;3.00;;;;;16.75;74.73;100055.03;5019915;28;45472;-78
2022/06/08 04:25:21;;;;;;;;;2.00;2.00;;;;;16.75;75.01;100052.34;5017733;28;46154;-77
2022/06/08 04:27:46;;;;;;;;;3.00;3.00;;;;;16.72;75.46;100045.38;4998177;28;45483;-76
2022/06/08 04:30:12;;;;;;;;;4.00;3.00;;;;;16.65;75.01;100038.63;5028946;28;45382;-76
2022/06/08 04:32:38;;;;;;;;;1.50;1.50;;;;;16.62;75.45;100036.13;5013165;28;45423;-75
2022/06/08 04:35:04;;;;;;;;;2.00;1.00;;;;;16.59;75.15;100034.47;5012616;28;48205;-77
2022/06/08 04:37:29;;;;;;;;;6.00;1.25;;;;;16.61;74.93;100039.72;5024191;28;45504;-76
2022/06/08 04:39:55;;;;;;;;;3.00;2.00;;;;;16.53;75.86;100029.47;5015512;28;45471;-77
2022/06/08 04:42:20;;;;;;;;;2.00;2.00;;;;;16.46;76.36;100036.09;5013307;28;45450;-77
2022/06/08 04:44:45;;;;;;;;;2.25;2.00;;;;;16.39;76.90;100032.88;5013296;28;45403;-77
2022/06/08 04:47:11;;;;;;;;;1.75;1.75;;;;;16.33;77.04;100030.53;5000471;28;45480;-77
2022/06/08 04:49:38;;;;;;;;;2.75;1.75;;;;;16.21;77.92;100024.03;4994523;28;45422;-76
2022/06/08 04:52:05;;;;;;;;;2.00;1.25;;;;;16.20;77.97;100027.66;4998123;28;45563;-77
2022/06/08 04:54:30;;;;;;;;;1.25;1.00;;;;;16.14;78.24;100022.66;4998540;28;45510;-76
2022/06/08 04:56:55;;;;;;;;;0.25;0.25;;;;;16.12;78.37;100022.72;4998961;28;45558;-76
2022/06/08 04:59:21;;;;;;;;;2.25;1.25;;;;;16.09;78.85;100012.19;5012968;28;45447;-77
2022/06/08 05:01:46;;;;;;;;;3.25;1.00;;;;;16.03;79.47;100020.50;5014336;28;45308;-76
2022/06/08 05:04:12;;;;;;;;;2.00;1.75;;;;;16.06;80.50;100019.50;5016299;28;45743;-77
2022/06/08 05:06:37;;;;;;;;;2.50;1.75;;;;;16.07;79.35;100006.09;5006278;28;45400;-82
2022/06/08 05:09:03;;;;;;;;;1.00;1.00;;;;;16.05;79.64;100009.75;5019639;28;45343;-81
2022/06/08 05:11:29;;;;;;;;;0.50;0.50;;;;;16.04;80.25;100016.06;5016651;28;45716;-81
2022/06/08 05:13:54;;;;;;;;;1.00;1.00;;;;;16.04;79.72;100014.25;5017914;28;46282;-80
2022/06/08 05:16:19;;;;;;;;;2.75;2.00;;;;;16.02;79.27;100002.81;5016115;28;45485;-81
2022/06/08 05:18:45;;;;;;;;;2.00;1.25;;;;;15.97;79.26;99994.19;5018596;28;45502;-81
2022/06/08 05:21:10;;;;;;;;;1.00;1.00;;;;;15.96;80.00;100003.97;5016930;28;45507;-82
2022/06/08 05:23:39;;;;;;;;;1.50;1.00;;;;;15.97;79.39;99999.50;5003465;28;46049;-81
2022/06/08 05:26:07;;;;;;;;;2.00;2.00;;;;;15.99;79.68;100002.97;5006110;28;45364;-82
2022/06/08 05:28:33;;;;;;;;;1.50;1.50;;;;;16.03;79.32;99993.84;5029997;28;45434;-80
2022/06/08 05:30:59;;;;;;;;;1.75;1.75;;;;;15.99;78.92;99997.63;5057456;28;45427;-81
2022/06/08 05:33:26;;;;;;;;;1.75;1.75;;;;;15.89;79.33;99991.91;5050526;28;45461;-81
2022/06/08 05:35:52;;;;;;;;;3.00;1.00;;;;;15.96;79.85;99989.81;5023743;28;45390;-81
2022/06/08 05:38:18;;;;;;;;;2.00;2.00;;;;;15.91;79.87;99994.50;5017568;28;45499;-81
2022/06/08 05:40:43;;;;;;;;;1.00;1.00;;;;;15.91;80.03;99990.03;5017355;28;45536;-81
2022/06/08 05:43:11;;;;;;;;;0.50;0.50;;;;;15.88;79.18;99984.00;5014984;28;46137;-81
2022/06/08 05:45:38;;;;;;;;;3.75;2.25;;;;;15.88;80.23;99991.97;4997369;28;45463;-81
2022/06/08 05:48:04;;;;;;;;;5.50;1.50;;;;;15.93;79.55;99981.97;4997864;28;45612;-80
2022/06/08 05:50:30;;;;;;;;;1.25;1.25;;;;;15.95;79.48;99980.94;5021195;28;45630;-81
2022/06/08 05:52:56;;;;;;;;;1.25;1.25;;;;;15.91;78.81;99984.72;5024711;28;45431;-82
2022/06/08 05:55:23;;;;;;;;;0.00;0.00;;;;;15.96;78.69;99984.47;5026291;28;45477;-83
2022/06/08 05:57:51;;;;;;;;;0.50;0.50;;;;;15.92;80.06;99985.56;5027343;28;45415;-81
2022/06/08 06:00:20;;;;;;;;;1.50;1.50;;;;;15.99;79.17;99986.97;5016015;28;45519;-81
2022/06/08 06:02:45;;;;;;;;;2.25;1.00;;;;;15.97;78.93;99995.06;5009456;28;47546;-80
2022/06/08 06:05:14;;;;;;;;;0.75;0.75;;;;;15.94;79.31;99978.34;5023099;28;45344;-80
2022/06/08 06:07:41;;;;;;;;;4.50;1.75;;;;;15.91;79.22;99978.50;5014023;28;45487;-81
2022/06/08 06:10:07;;;;;;;;;2.75;1.00;;;;;15.88;79.52;99987.53;5012330;28;45513;-80
2022/06/08 06:12:33;;;;;;;;;1.00;1.00;;;;;15.89;80.33;99997.22;5013986;28;45446;-80
2022/06/08 06:15:01;;;;;;;;;1.00;1.00;;;;;15.83;80.40;99986.91;5025103;28;45353;-78
2022/06/08 06:17:29;;;;;;;;;3.25;2.00;;;;;15.87;80.72;99992.94;5029638;28;45453;-82
2022/06/08 06:19:56;;;;;;;;;0.75;0.75;;;;;15.80;81.05;99984.38;5019203;28;45566;-81
2022/06/08 06:22:21;;;;;;;;;1.25;1.25;;;;;15.86;81.20;99996.53;5027086;28;45679;-81
2022/06/08 06:24:47;;;;;;;;;1.00;1.00;;;;;15.85;81.23;100000.13;5029784;28;45563;-81
2022/06/08 06:27:13;;;;;;;;;2.00;1.25;;;;;15.79;81.38;99996.84;5016066;28;45296;-81
2022/06/08 06:29:38;;;;;;;;;2.25;1.25;;;;;15.74;82.58;99992.66;5019192;28;45623;-80
2022/06/08 06:32:12;;;;;;;;;2.00;1.25;;;;;15.78;82.31;99997.78;5022171;28;45531;-81
2022/06/08 06:34:39;;;;;;;;;0.75;0.75;;;;;15.73;82.38;99997.13;5032605;28;45457;-80
2022/06/08 06:37:05;;;;;;;;;1.00;1.00;;;;;15.76;82.40;100001.41;5024120;28;45466;-80
2022/06/08 06:39:30;;;;;;;;;5.00;2.00;;;;;15.76;82.79;100002.31;5014746;28;45490;-82
2022/06/08 06:41:58;;;;;;;;;3.50;1.75;;;;;15.75;82.19;99997.91;5022520;28;45438;-82
2022/06/08 06:44:24;;;;;;;;;1.00;1.00;;;;;15.81;82.42;100005.63;5025839;28;45451;-81
2022/06/08 06:46:49;;;;;;;;;2.00;1.00;;;;;15.84;82.33;100009.09;5022188;28;45457;-82
2022/06/08 06:49:15;;;;;;;;;0.00;0.00;;;;;15.87;82.24;99999.13;5025303;28;44863;-81
2022/06/08 06:51:40;;;;;;;;;0.50;0.50;;;;;15.86;81.87;99992.06;5020969;28;46201;-81
2022/06/08 06:54:09;;;;;;;;;0.50;0.25;;;;;15.92;81.72;99999.75;5022807;28;45438;-82
2022/06/08 06:56:35;;;;;;;;;0.25;0.25;;;;;15.93;81.25;99987.31;5025788;28;45423;-82
2022/06/08 06:59:02;;;;;;;;;1.00;0.75;;;;;16.05;81.56;100009.75;5021090;28;45414;-81
2022/06/08 07:01:28;;;;;;;;;1.75;0.75;;;;;16.04;81.09;100011.56;5012334;28;46615;-82
2022/06/08 07:03:53;;;;;;;;;1.00;1.00;;;;;16.01;81.87;100001.06;5020010;28;45419;-82
2022/06/08 07:06:19;;;;;;;;;1.50;1.50;;;;;16.08;81.71;100013.16;5024210;28;45462;-81
2022/06/08 07:08:44;;;;;;;;;0.00;0.00;;;;;16.05;81.60;100000.00;5002143;28;45368;-80
2022/06/08 07:13:57;;;;;;;;;0.00;0.00;;;;;16.06;81.54;100007.03;5021859;28;45462;-82
2022/06/08 07:16:23;;;;;;;;;0.50;0.50;;;;;16.09;81.13;100000.69;5035106;28;45537;-82
2022/06/08 07:18:48;;;;;;;;;0.25;0.00;;;;;16.15;81.70;100011.91;5020556;28;45545;-82
2022/06/08 07:21:14;;;;;;;;;1.00;1.00;;;;;16.10;82.01;100000.59;5030594;28;46584;-80
2022/06/08 07:23:41;;;;;;;;;1.00;0.00;;;;;16.16;82.00;100013.59;5013745;28;45404;-80
2022/06/08 07:26:06;;;;;;;;;1.75;0.00;;;;;16.18;81.52;100002.88;5014033;28;45403;-81
2022/06/08 07:28:32;;;;;;;;;0.00;0.00;;;;;16.23;81.21;100000.84;5013946;28;45473;-77
2022/06/08 07:30:57;;;;;;;;;1.67;1.00;;;;;16.24;81.22;100015.00;5018409;28;45876;-77
2022/06/08 07:33:23;;;;;;;;;0.00;0.00;;;;;16.26;81.34;100010.44;5027206;28;45465;-77
2022/06/08 07:35:48;;;;;;;;;1.00;0.00;;;;;16.22;80.31;100001.78;5008249;28;45420;-78
2022/06/08 07:38:14;;;;;;;;;0.00;0.00;;;;;16.27;80.84;100001.53;5015415;28;45494;-77
2022/06/08 07:40:40;;;;;;;;;0.50;0.00;;;;;16.34;81.23;100013.59;5015771;28;46463;-77
2022/06/08 07:43:05;;;;;;;;;1.75;0.50;;;;;16.44;81.03;100016.63;5027825;28;45308;-76
2022/06/08 07:45:33;;;;;;;;;0.00;0.00;;;;;16.50;80.84;100006.50;5013600;28;45451;-75
2022/06/08 07:50:43;;;;;;;;;0.00;0.00;;;;;16.70;79.83;100009.88;5034998;28;45737;-78
2022/06/08 07:53:08;;;;;;;;;0.00;0.00;;;;;16.80;80.33;100004.91;5014527;28;45629;-77
2022/06/08 07:55:34;;;;;;;;;0.00;0.00;;;;;16.83;79.16;100000.25;5016604;28;45792;-79
2022/06/08 07:58:02;;;;;;;;;1.00;0.00;;;;;16.93;79.37;100006.00;5016313;28;45645;-78
2022/06/08 08:00:28;;;;;;;;;0.00;0.00;;;;;16.98;78.22;100008.41;5026564;28;46024;-79
2022/06/08 08:02:54;;;;;;;;;0.00;0.00;;;;;17.10;78.57;100010.41;5011052;28;45425;-79
2022/06/08 08:05:19;;;;;;;;;0.00;0.00;;;;;17.30;78.67;100011.09;5005734;28;45299;-78
2022/06/08 08:07:45;;;;;;;;;2.00;1.00;;;;;17.50;77.28;100002.78;5020287;28;45257;-79
2022/06/08 08:10:18;;;;;;;;;0.00;0.00;;;;;17.76;76.46;99995.94;5020538;28;45474;-78
2022/06/08 08:12:44;;;;;;;;;0.00;0.00;;;;;17.97;75.58;99987.59;5012571;28;45530;-78
2022/06/08 08:15:10;;;;;;;;;0.00;0.00;;;;;18.36;74.92;99998.66;5021117;28;45557;-78
2022/06/08 08:17:36;;;;;;;;;2.50;0.25;;;;;18.88;73.82;99995.41;5037858;28;45507;-80
2022/06/08 08:20:04;;;;;;;;;1.75;0.00;;;;;19.45;72.53;99985.47;5029842;28;46145;-78
2022/06/08 08:22:30;;;;;;;;;0.00;0.00;;;;;19.97;70.10;99987.38;5013684;28;45504;-80
2022/06/08 08:24:55;;;;;;;;;0.25;0.00;;;;;20.42;69.08;99982.47;5020543;28;45523;-78
2022/06/08 08:27:20;;;;;;;;;0.00;0.00;;;;;20.82;66.26;99980.63;5018445;28;45853;-78
2022/06/08 08:29:46;;;;;;;;;0.00;0.00;;;;;21.26;66.17;99973.81;5015754;28;45402;-79
2022/06/08 08:32:11;;;;;;;;;0.00;0.00;;;;;21.53;64.54;99975.44;5013578;28;45750;-78
2022/06/08 08:34:37;;;;;;;;;2.00;0.75;;;;;21.62;63.45;99959.47;5029296;28;45557;-79
2022/06/08 08:37:02;;;;;;;;;0.00;0.00;;;;;21.71;64.24;99968.69;5024053;28;45613;-79
2022/06/08 08:39:28;;;;;;;;;0.00;0.00;;;;;21.71;62.75;99979.44;5020993;28;45491;-78
2022/06/08 08:44:42;;;;;;;;;0.00;0.00;;;;;21.28;63.96;99983.47;5019542;28;45430;-77
2022/06/08 08:47:25;;;;;;;;;0.00;0.00;;;;;21.08;63.69;99987.63;5028233;28;45339;-78
2022/06/08 08:50:00;;;;;;;;;0.00;0.00;;;;;20.90;65.11;99983.59;5018316;28;45454;-79
2022/06/08 08:52:31;;;;;;;;;0.00;0.00;;;;;20.63;65.15;100000.69;5015887;28;45604;-78
2022/06/08 08:55:06;;;;;;;;;0.00;0.00;;;;;20.52;65.33;100001.44;5024017;28;45447;-77
2022/06/08 08:57:43;;;;;;;;;0.00;0.00;;;;;20.50;66.44;100002.53;5031601;28;45553;-79
2022/06/08 09:00:23;;;;;;;;;0.00;0.00;;;;;20.44;66.04;100000.25;5017930;28;45630;-78
2022/06/08 09:05:47;;;;;;;;;0.00;0.00;;;;;20.22;66.94;99999.09;5027748;28;45438;-78
2022/06/08 09:08:15;;;;;;;;;0.00;0.00;;;;;20.09;67.50;100008.94;5022973;28;45503;-79
2022/06/08 09:10:41;;;;;;;;;0.00;0.00;;;;;20.04;68.22;100012.81;5027576;28;46160;-78
2022/06/08 09:13:12;;;;;;;;;0.00;0.00;;;;;19.99;67.91;100008.72;5011805;28;45357;-78
2022/06/08 09:15:46;;;;;;;;;0.00;0.00;;;;;20.02;68.09;100009.38;5020465;28;45472;-79
2022/06/08 09:18:39;;;;;;;;;0.50;0.00;;;;;20.39;67.30;100006.84;5014824;28;45433;-77
2022/06/08 09:21:26;;;;;;;;;0.75;0.75;;;;;21.04;66.40;100002.25;5026546;28;46197;-77
2022/06/08 09:23:55;;;;;;;;;0.00;0.00;;;;;21.27;64.55;99988.97;5009383;28;45462;-78
2022/06/08 09:26:24;;;;;;;;;0.00;0.00;;;;;21.51;64.19;99998.91;5018861;28;45328;-79
2022/06/08 09:29:00;;;;;;;;;0.00;0.00;;;;;22.05;63.59;99994.84;5024100;28;45499;-77
2022/06/08 09:31:30;;;;;;;;;1.00;1.00;;;;;22.47;62.87;99992.47;5016135;28;45634;-78
2022/06/08 09:34:32;;;;;;;;;1.00;1.00;;;;;22.50;60.37;99987.72;5016389;28;45579;-86
2022/06/08 09:37:03;;;;;;;;;0.00;0.00;;;;;22.88;60.60;99996.38;5017303;28;45418;-77
2022/06/08 09:39:28;;;;;;;;;0.00;0.00;;;;;23.47;58.16;99987.09;5021529;28;45539;-80
2022/06/08 09:41:54;;;;;;;;;0.00;0.00;;;;;24.40;56.24;99993.63;5019097;28;47110;-80
2022/06/08 09:44:28;;;;;;;;;0.75;0.75;;;;;25.06;55.31;99986.09;5022631;28;45566;-78
2022/06/08 09:53:16;;;;;;;;;0.00;0.00;;;;;25.64;51.06;99990.75;5017014;28;45810;-81
2022/06/08 09:55:47;;;;;;;;;0.00;0.00;;;;;25.94;50.83;99989.72;5020894;28;45391;-80
2022/06/08 09:58:31;;;;;;;;;0.00;0.00;;;;;26.58;50.30;99985.47;5018689;28;45519;-81
2022/06/08 10:01:08;;;;;;;;;0.00;0.00;;;;;26.73;48.23;99976.88;5026953;28;45513;-80
2022/06/08 10:03:50;;;;;;;;;6.00;6.00;;;;;27.31;48.77;99975.69;5014984;28;46693;-81
2022/06/08 10:06:36;;;;;;;;;4.25;3.50;;;;;27.62;46.71;99972.66;5023588;28;45537;-79
2022/06/08 10:09:16;;;;;;;;;0.25;0.00;;;;;27.68;44.57;99972.03;5022422;28;45473;-80
2022/06/08 10:12:09;;;;;;;;;1.25;1.25;;;;;28.06;43.95;99953.69;5011867;28;45587;-79
2022/06/08 10:14:55;;;;;;;;;1.00;1.00;;;;;27.98;44.03;99949.06;5024820;28;45461;-79
2022/06/08 10:17:30;;;;;;;;;1.00;1.00;;;;;28.46;43.04;99941.34;5033395;28;45584;-80
2022/06/08 10:20:12;;;;;;;;;0.00;0.00;;;;;29.16;43.06;99942.97;5024304;28;45355;-79
2022/06/08 10:22:43;;;;;;;;;0.00;0.00;;;;;29.63;40.95;99930.66;5020965;28;45662;-79
2022/06/08 10:25:34;;;;;;;;;1.75;0.00;;;;;30.10;41.07;99943.56;5014490;28;46305;-79
2022/06/08 10:28:05;;;;;;;;;0.00;0.00;;;;;30.14;38.66;99952.28;5014678;28;45637;-80
2022/06/08 10:30:51;;;;;;;;;2.00;0.50;;;;;30.00;38.33;99951.06;5014443;28;45503;-80
2022/06/08 10:33:33;;;;;;;;;0.00;0.00;;;;;29.81;39.35;99944.13;5016324;28;45478;-80
2022/06/08 10:36:00;;;;;;;;;0.50;0.50;;;;;29.42;39.34;99945.59;5010727;28;45523;-80
2022/06/08 10:38:29;;;;;;;;;1.00;1.00;;;;;28.94;40.11;99965.34;5003111;28;45529;-80
2022/06/08 10:44:01;;;;;;;;;0.50;0.00;;;;;27.35;43.58;99969.00;5016612;28;45355;-79
2022/06/08 10:46:32;;;;;;;;;1.00;1.00;;;;;26.76;45.45;99961.19;5028849;28;45442;-80
2022/06/08 10:48:58;;;;;;;;;0.00;0.00;;;;;26.31;45.55;99967.31;5013512;28;45480;-80
2022/06/08 10:51:31;;;;;;;;;1.50;1.50;;;;;25.83;47.54;99968.25;5013434;28;45438;-78
2022/06/08 10:56:41;;;;;;;;;1.75;1.75;;;;;25.04;49.74;99979.94;5016192;28;45346;-80
2022/06/08 10:59:07;;;;;;;;;0.00;0.00;;;;;24.67;50.37;99983.25;5016346;28;45385;-80
2022/06/08 11:01:35;;;;;;;;;0.00;0.00;;;;;24.36;51.17;99994.03;5023114;28;45507;-80
2022/06/08 11:04:02;;;;;;;;;0.00;0.00;;;;;24.83;51.00;99984.44;5011490;28;45566;-80
2022/06/08 11:06:45;;;;;;;;;2.00;0.25;;;;;25.65;51.20;99992.47;5014113;28;45550;-80
2022/06/08 11:09:33;;;;;;;;;1.00;1.00;;;;;26.32;48.52;99990.69;5018361;28;45444;-80
2022/06/08 11:12:16;;;;;;;;;1.75;1.75;;;;;26.64;46.96;99989.44;5019075;28;45470;-83
2022/06/08 11:14:47;;;;;;;;;1.00;0.75;;;;;26.67;47.44;99988.34;5021467;28;45388;-81
2022/06/08 11:17:31;;;;;;;;;1.00;1.00;;;;;27.18;46.49;99980.63;5020182;28;46267;-85
2022/06/08 11:20:03;;;;;;;;;1.25;1.00;;;;;27.15;45.05;99981.81;5026935;28;45555;-78
2022/06/08 11:22:36;;;;;;;;;3.00;1.25;;;;;26.80;46.34;99972.59;5018168;28;45528;-79
2022/06/08 11:25:06;;;;;;;;;2.00;2.00;;;;;26.46;46.76;99969.56;5018855;28;45389;-79
2022/06/08 11:27:37;;;;;;;;;3.00;1.75;;;;;26.00;46.51;99978.34;5018024;28;45450;-79
2022/06/08 11:30:26;;;;;;;;;2.75;1.00;;;;;25.70;47.37;99991.00;5025072;28;45493;-79
2022/06/08 11:32:51;;;;;;;;;2.00;2.00;;;;;25.69;47.66;99989.34;5013251;28;45563;-79
2022/06/08 11:35:30;;;;;;;;;0.75;0.75;;;;;26.23;45.65;99972.63;5018101;28;45478;-79
2022/06/08 11:38:16;;;;;;;;;2.00;2.00;;;;;26.95;45.76;99967.50;5009633;28;45540;-79
2022/06/08 11:40:42;;;;;;;;;1.00;1.00;;;;;27.30;45.05;99966.72;5021881;28;45676;-79
2022/06/08 11:43:10;;;;;;;;;3.00;2.00;;;;;27.76;44.15;99963.94;5027114;28;45391;-79
2022/06/08 11:45:52;;;;;;;;;5.50;3.00;;;;;27.88;42.28;99966.38;5013707;28;45716;-79
2022/06/08 11:48:29;;;;;;;;;2.75;1.00;;;;;27.71;42.42;99960.84;5008889;28;46374;-80
2022/06/08 11:50:59;;;;;;;;;1.25;0.00;;;;;27.60;40.92;99961.94;5013770;28;45522;-79
2022/06/08 11:53:26;;;;;;;;;0.00;0.00;;;;;27.51;41.17;99965.56;5017464;28;46380;-78
2022/06/08 11:56:14;;;;;;;;;1.25;1.25;;;;;27.30;41.15;99974.00;5016900;28;45491;-79
2022/06/08 11:58:50;;;;;;;;;0.00;0.00;;;;;27.02;41.25;99965.88;5020376;28;46309;-79
2022/06/08 12:01:22;;;;;;;;;0.75;0.75;;;;;26.86;41.71;99965.69;5010834;28;45736;-79
2022/06/08 12:03:56;;;;;;;;;0.00;0.00;;;;;26.81;41.64;99968.00;5013873;28;45576;-79
2022/06/08 12:06:32;;;;;;;;;0.00;0.00;;;;;26.87;42.68;99972.81;5026701;28;45392;-79
2022/06/08 12:09:03;;;;;;;;;0.25;0.25;;;;;26.93;42.12;99988.47;5018139;28;45546;-79
2022/06/08 12:11:30;;;;;;;;;0.25;0.25;;;;;27.07;40.65;99978.97;5017126;28;45421;-78
2022/06/08 12:14:00;;;;;;;;;0.00;0.00;;;;;27.21;40.59;99988.44;5022087;28;45502;-76